Airfield :
LOGIN :

Register | Disclaimer

   EN    FR    IT 

 










Legend :    VFR   Marginal VFR   IFR   Intensive IFR   Very Intensive IFR
Visi :
Ceiling :
>= 8 km
>= 3000ft
5 to 8 km
1000 to 3000 ft
1500m to 5 km
500 to 1000 ft
800 to 1500m
200 to 500 ft
< 800m
< 200 ft
Symbols :   Thunderstorms  Fog  Heavy snow  Heavy precipitations  Wind > 20 kt
SIGMETs :     Misc.  Thunderstorms  Icing  Turbulence  Mountain Waves  Volcanic Ashes






- Airport Elevation : 659 ft
- IATA code : LYN


LFLY - Lyon Bron

CURRENT METAR :
  • 071900Z AUTO 15005KT CAVOK 18/03 Q1025

EXPIRED METARs :
  • 071830Z AUTO 14004KT CAVOK 19/03 Q1024
  • 071800Z AUTO 15004KT CAVOK 20/03 Q1024
  • 071730Z AUTO 14005KT 110V170 CAVOK 22/02 Q1024
  • 071700Z AUTO 17005KT 140V210 CAVOK 23/03 Q1024
  • 071630Z AUTO 15004KT 090V210 CAVOK 23/03 Q1024

Expired Forecast.
ATIS : +33 4 72 15 87 96



MET'MAP, your aeronautical weather chart ! - Copyright ORBIFLY December 2007 - Disclaimer

ORBIFLY MET'MAP TEAM :

Programming & Development : Alexandra Zaïnal
Concept & original design : Baudouin d'Aumeries
Assistance for programming : Marc-Olivier Méhu
Technical & hardware support : Manuel Goepfert

Contact : metmap@orbifly.com




SOURCES & CREDITS :

   NOAA